<?xml version="1.0" encoding="UTF-8" standalone="no" ?>
<gpx xmlns="http://www.topografix.com/GPX/1/1" xmlns:xsi="http://www.w3.org/2001/XMLSchema-instance" xsi:schemaLocation="http://www.topografix.com/GPX/1/1 http://www.topografix.com/GPX/1/1/gpx.xsd" version="1.1" creator="VisuGPX - https://www.visugpx.com">
  <metadata>
    <name>rando Dambelin</name>
    <desc><![CDATA[rando vtt de dambelin]]></desc>
  </metadata>
  <trk>
    <name><![CDATA[ACTIVE LOG 053]]></name>
    <trkseg>
      <trkpt lat="47.37574" lon="6.68206">
        <ele>406.7749023</ele>
        <time>2012-04-15T06:29:49Z</time>
      </trkpt>
      <trkpt lat="47.37499" lon="6.68193">
        <ele>404.8522949</ele>
        <time>2012-04-15T06:32:43Z</time>
      </trkpt>
      <trkpt lat="47.37453" lon="6.68078">
        <ele>404.8522949</ele>
        <time>2012-04-15T06:33:05Z</time>
      </trkpt>
      <trkpt lat="47.37354" lon="6.67981">
        <ele>407.2556152</ele>
        <time>2012-04-15T06:33:32Z</time>
      </trkpt>
      <trkpt lat="47.37346" lon="6.67979">
        <ele>407.2556152</ele>
        <time>2012-04-15T06:33:34Z</time>
      </trkpt>
      <trkpt lat="47.37336" lon="6.67888">
        <ele>409.6590576</ele>
        <time>2012-04-15T06:33:49Z</time>
      </trkpt>
      <trkpt lat="47.37264" lon="6.67789">
        <ele>412.5428467</ele>
        <time>2012-04-15T06:34:12Z</time>
      </trkpt>
      <trkpt lat="47.37233" lon="6.67654">
        <ele>417.3496094</ele>
        <time>2012-04-15T06:34:36Z</time>
      </trkpt>
      <trkpt lat="47.37281" lon="6.67632">
        <ele>419.7528076</ele>
        <time>2012-04-15T06:34:51Z</time>
      </trkpt>
      <trkpt lat="47.37285" lon="6.67601">
        <ele>420.7141113</ele>
        <time>2012-04-15T06:34:58Z</time>
      </trkpt>
      <trkpt lat="47.37241" lon="6.67435">
        <ele>419.2722168</ele>
        <time>2012-04-15T06:35:22Z</time>
      </trkpt>
      <trkpt lat="47.37236" lon="6.67332">
        <ele>419.7528076</ele>
        <time>2012-04-15T06:35:37Z</time>
      </trkpt>
      <trkpt lat="47.37255" lon="6.67211">
        <ele>422.6367188</ele>
        <time>2012-04-15T06:35:55Z</time>
      </trkpt>
      <trkpt lat="47.37262" lon="6.67178">
        <ele>423.1174316</ele>
        <time>2012-04-15T06:36:01Z</time>
      </trkpt>
      <trkpt lat="47.37239" lon="6.67039">
        <ele>427.9239502</ele>
        <time>2012-04-15T06:36:25Z</time>
      </trkpt>
      <trkpt lat="47.37219" lon="6.66984">
        <ele>428.885376</ele>
        <time>2012-04-15T06:36:36Z</time>
      </trkpt>
      <trkpt lat="47.37208" lon="6.66911">
        <ele>429.8465576</ele>
        <time>2012-04-15T06:36:49Z</time>
      </trkpt>
      <trkpt lat="47.37186" lon="6.66768">
        <ele>430.3272705</ele>
        <time>2012-04-15T06:37:13Z</time>
      </trkpt>
      <trkpt lat="47.37137" lon="6.66682">
        <ele>429.8465576</ele>
        <time>2012-04-15T06:37:30Z</time>
      </trkpt>
      <trkpt lat="47.3709" lon="6.66562">
        <ele>431.769165</ele>
        <time>2012-04-15T06:37:52Z</time>
      </trkpt>
      <trkpt lat="47.3708" lon="6.66535">
        <ele>431.769165</ele>
        <time>2012-04-15T06:37:57Z</time>
      </trkpt>
      <trkpt lat="47.37028" lon="6.66323">
        <ele>437.0565186</ele>
        <time>2012-04-15T06:38:36Z</time>
      </trkpt>
      <trkpt lat="47.36971" lon="6.66164">
        <ele>442.3438721</ele>
        <time>2012-04-15T06:39:10Z</time>
      </trkpt>
      <trkpt lat="47.36943" lon="6.66112">
        <ele>444.2664795</ele>
        <time>2012-04-15T06:39:24Z</time>
      </trkpt>
      <trkpt lat="47.36747" lon="6.66089">
        <ele>450.0344238</ele>
        <time>2012-04-15T06:40:19Z</time>
      </trkpt>
      <trkpt lat="47.36638" lon="6.66075">
        <ele>451.9570313</ele>
        <time>2012-04-15T06:40:50Z</time>
      </trkpt>
      <trkpt lat="47.36562" lon="6.6611">
        <ele>455.3215332</ele>
        <time>2012-04-15T06:41:18Z</time>
      </trkpt>
      <trkpt lat="47.36425" lon="6.66085">
        <ele>466.8574219</ele>
        <time>2012-04-15T06:42:34Z</time>
      </trkpt>
      <trkpt lat="47.3642" lon="6.66083">
        <ele>466.8574219</ele>
        <time>2012-04-15T06:42:38Z</time>
      </trkpt>
      <trkpt lat="47.36374" lon="6.66115">
        <ele>475.0286865</ele>
        <time>2012-04-15T06:43:37Z</time>
      </trkpt>
      <trkpt lat="47.36375" lon="6.66122">
        <ele>475.0286865</ele>
        <time>2012-04-15T06:43:41Z</time>
      </trkpt>
      <trkpt lat="47.36394" lon="6.66199">
        <ele>465.4155273</ele>
        <time>2012-04-15T06:44:00Z</time>
      </trkpt>
      <trkpt lat="47.36394" lon="6.66267">
        <ele>464.4541016</ele>
        <time>2012-04-15T06:44:12Z</time>
      </trkpt>
      <trkpt lat="47.36443" lon="6.66329">
        <ele>463.4927979</ele>
        <time>2012-04-15T06:44:36Z</time>
      </trkpt>
      <trkpt lat="47.36471" lon="6.66409">
        <ele>465.8961182</ele>
        <time>2012-04-15T06:44:54Z</time>
      </trkpt>
      <trkpt lat="47.36477" lon="6.66438">
        <ele>464.4541016</ele>
        <time>2012-04-15T06:44:59Z</time>
      </trkpt>
      <trkpt lat="47.36475" lon="6.66589">
        <ele>471.6639404</ele>
        <time>2012-04-15T06:45:35Z</time>
      </trkpt>
      <trkpt lat="47.36549" lon="6.66582">
        <ele>464.9348145</ele>
        <time>2012-04-15T06:45:49Z</time>
      </trkpt>
      <trkpt lat="47.36665" lon="6.66611">
        <ele>459.1668701</ele>
        <time>2012-04-15T06:46:04Z</time>
      </trkpt>
      <trkpt lat="47.36726" lon="6.66625">
        <ele>453.8796387</ele>
        <time>2012-04-15T06:46:11Z</time>
      </trkpt>
      <trkpt lat="47.36766" lon="6.66667">
        <ele>451.9570313</ele>
        <time>2012-04-15T06:46:17Z</time>
      </trkpt>
      <trkpt lat="47.36853" lon="6.6687">
        <ele>442.3438721</ele>
        <time>2012-04-15T06:46:36Z</time>
      </trkpt>
      <trkpt lat="47.36905" lon="6.66947">
        <ele>440.4212646</ele>
        <time>2012-04-15T06:46:48Z</time>
      </trkpt>
      <trkpt lat="47.36917" lon="6.67183">
        <ele>429.8465576</ele>
        <time>2012-04-15T06:47:11Z</time>
      </trkpt>
      <trkpt lat="47.36941" lon="6.67286">
        <ele>426.9627686</ele>
        <time>2012-04-15T06:47:20Z</time>
      </trkpt>
      <trkpt lat="47.37021" lon="6.67528">
        <ele>420.2333984</ele>
        <time>2012-04-15T06:47:42Z</time>
      </trkpt>
      <trkpt lat="47.37074" lon="6.67614">
        <ele>417.3496094</ele>
        <time>2012-04-15T06:47:53Z</time>
      </trkpt>
      <trkpt lat="47.37093" lon="6.67633">
        <ele>416.3881836</ele>
        <time>2012-04-15T06:47:57Z</time>
      </trkpt>
      <trkpt lat="47.37102" lon="6.67762">
        <ele>415.4268799</ele>
        <time>2012-04-15T06:48:12Z</time>
      </trkpt>
      <trkpt lat="47.37095" lon="6.67793">
        <ele>415.4268799</ele>
        <time>2012-04-15T06:48:15Z</time>
      </trkpt>
      <trkpt lat="47.37033" lon="6.67841">
        <ele>415.4268799</ele>
        <time>2012-04-15T06:48:26Z</time>
      </trkpt>
      <trkpt lat="47.37027" lon="6.67969">
        <ele>422.1560059</ele>
        <time>2012-04-15T06:48:49Z</time>
      </trkpt>
      <trkpt lat="47.36987" lon="6.67995">
        <ele>426.0013428</ele>
        <time>2012-04-15T06:49:05Z</time>
      </trkpt>
      <trkpt lat="47.36783" lon="6.67975">
        <ele>438.4985352</ele>
        <time>2012-04-15T06:50:20Z</time>
      </trkpt>
      <trkpt lat="47.36751" lon="6.67941">
        <ele>445.708374</ele>
        <time>2012-04-15T06:50:56Z</time>
      </trkpt>
      <trkpt lat="47.3672" lon="6.67923">
        <ele>448.5924072</ele>
        <time>2012-04-15T06:51:05Z</time>
      </trkpt>
      <trkpt lat="47.36637" lon="6.67914">
        <ele>460.1281738</ele>
        <time>2012-04-15T06:51:59Z</time>
      </trkpt>
      <trkpt lat="47.36615" lon="6.67973">
        <ele>463.4927979</ele>
        <time>2012-04-15T06:52:27Z</time>
      </trkpt>
      <trkpt lat="47.36603" lon="6.68123">
        <ele>474.0672607</ele>
        <time>2012-04-15T06:53:32Z</time>
      </trkpt>
      <trkpt lat="47.36629" lon="6.68205">
        <ele>484.1611328</ele>
        <time>2012-04-15T06:54:22Z</time>
      </trkpt>
      <trkpt lat="47.36614" lon="6.682">
        <ele>485.6030273</ele>
        <time>2012-04-15T06:54:37Z</time>
      </trkpt>
      <trkpt lat="47.36495" lon="6.68062">
        <ele>496.6583252</ele>
        <time>2012-04-15T06:56:01Z</time>
      </trkpt>
      <trkpt lat="47.3646" lon="6.67951">
        <ele>502.9067383</ele>
        <time>2012-04-15T06:56:46Z</time>
      </trkpt>
      <trkpt lat="47.36456" lon="6.6795">
        <ele>502.9067383</ele>
        <time>2012-04-15T06:56:48Z</time>
      </trkpt>
      <trkpt lat="47.36446" lon="6.67962">
        <ele>506.2714844</ele>
        <time>2012-04-15T06:57:02Z</time>
      </trkpt>
      <trkpt lat="47.3646" lon="6.68039">
        <ele>512.5200195</ele>
        <time>2012-04-15T06:57:29Z</time>
      </trkpt>
      <trkpt lat="47.36449" lon="6.68081">
        <ele>511.5587158</ele>
        <time>2012-04-15T06:57:43Z</time>
      </trkpt>
      <trkpt lat="47.36479" lon="6.68132">
        <ele>515.4040527</ele>
        <time>2012-04-15T06:58:08Z</time>
      </trkpt>
      <trkpt lat="47.3654" lon="6.68186">
        <ele>520.6912842</ele>
        <time>2012-04-15T06:58:52Z</time>
      </trkpt>
      <trkpt lat="47.36572" lon="6.68237">
        <ele>522.6138916</ele>
        <time>2012-04-15T06:59:12Z</time>
      </trkpt>
      <trkpt lat="47.36598" lon="6.68302">
        <ele>525.9783936</ele>
        <time>2012-04-15T06:59:35Z</time>
      </trkpt>
      <trkpt lat="47.36609" lon="6.68419">
        <ele>532.2270508</ele>
        <time>2012-04-15T07:00:13Z</time>
      </trkpt>
      <trkpt lat="47.36587" lon="6.68328">
        <ele>537.0336914</ele>
        <time>2012-04-15T07:00:49Z</time>
      </trkpt>
      <trkpt lat="47.36546" lon="6.68271">
        <ele>541.3594971</ele>
        <time>2012-04-15T07:01:15Z</time>
      </trkpt>
      <trkpt lat="47.36456" lon="6.68211">
        <ele>548.0888672</ele>
        <time>2012-04-15T07:02:00Z</time>
      </trkpt>
      <trkpt lat="47.36426" lon="6.68289">
        <ele>554.3374023</ele>
        <time>2012-04-15T07:02:35Z</time>
      </trkpt>
      <trkpt lat="47.36408" lon="6.68305">
        <ele>555.7792969</ele>
        <time>2012-04-15T07:02:49Z</time>
      </trkpt>
      <trkpt lat="47.36321" lon="6.68295">
        <ele>563.4699707</ele>
        <time>2012-04-15T07:03:39Z</time>
      </trkpt>
      <trkpt lat="47.36301" lon="6.68317">
        <ele>565.3925781</ele>
        <time>2012-04-15T07:03:54Z</time>
      </trkpt>
      <trkpt lat="47.36345" lon="6.68454">
        <ele>571.1604004</ele>
        <time>2012-04-15T07:04:43Z</time>
      </trkpt>
      <trkpt lat="47.36362" lon="6.68564">
        <ele>577.4091797</ele>
        <time>2012-04-15T07:05:25Z</time>
      </trkpt>
      <trkpt lat="47.36362" lon="6.68591">
        <ele>578.8510742</ele>
        <time>2012-04-15T07:05:36Z</time>
      </trkpt>
      <trkpt lat="47.36362" lon="6.69084">
        <ele>601.4418945</ele>
        <time>2012-04-15T07:08:13Z</time>
      </trkpt>
      <trkpt lat="47.36331" lon="6.69261">
        <ele>614.4196777</ele>
        <time>2012-04-15T07:09:21Z</time>
      </trkpt>
      <trkpt lat="47.36296" lon="6.69366">
        <ele>625.9555664</ele>
        <time>2012-04-15T07:10:22Z</time>
      </trkpt>
      <trkpt lat="47.36269" lon="6.69491">
        <ele>634.6074219</ele>
        <time>2012-04-15T07:11:14Z</time>
      </trkpt>
      <trkpt lat="47.3627" lon="6.695">
        <ele>635.0881348</ele>
        <time>2012-04-15T07:11:18Z</time>
      </trkpt>
      <trkpt lat="47.36253" lon="6.69511">
        <ele>638.9335938</ele>
        <time>2012-04-15T07:11:30Z</time>
      </trkpt>
      <trkpt lat="47.36241" lon="6.69475">
        <ele>640.855957</ele>
        <time>2012-04-15T07:11:43Z</time>
      </trkpt>
      <trkpt lat="47.36219" lon="6.69337">
        <ele>643.7399902</ele>
        <time>2012-04-15T07:12:23Z</time>
      </trkpt>
      <trkpt lat="47.36104" lon="6.68582">
        <ele>645.1818848</ele>
        <time>2012-04-15T07:15:17Z</time>
      </trkpt>
      <trkpt lat="47.36052" lon="6.68457">
        <ele>647.1044922</ele>
        <time>2012-04-15T07:15:49Z</time>
      </trkpt>
      <trkpt lat="47.35991" lon="6.6837">
        <ele>651.9111328</ele>
        <time>2012-04-15T07:16:24Z</time>
      </trkpt>
      <trkpt lat="47.35893" lon="6.68185">
        <ele>670.1762695</ele>
        <time>2012-04-15T07:18:07Z</time>
      </trkpt>
      <trkpt lat="47.3589" lon="6.68181">
        <ele>670.1762695</ele>
        <time>2012-04-15T07:18:10Z</time>
      </trkpt>
      <trkpt lat="47.35901" lon="6.6811">
        <ele>676.9055176</ele>
        <time>2012-04-15T07:18:45Z</time>
      </trkpt>
      <trkpt lat="47.35868" lon="6.67998">
        <ele>686.0380859</ele>
        <time>2012-04-15T07:19:38Z</time>
      </trkpt>
      <trkpt lat="47.35828" lon="6.67939">
        <ele>692.767334</ele>
        <time>2012-04-15T07:20:15Z</time>
      </trkpt>
      <trkpt lat="47.35805" lon="6.68012">
        <ele>699.015625</ele>
        <time>2012-04-15T07:20:59Z</time>
      </trkpt>
      <trkpt lat="47.35798" lon="6.68027">
        <ele>700.4580078</ele>
        <time>2012-04-15T07:21:05Z</time>
      </trkpt>
      <trkpt lat="47.3578" lon="6.68056">
        <ele>702.3803711</ele>
        <time>2012-04-15T07:21:21Z</time>
      </trkpt>
      <trkpt lat="47.35778" lon="6.68088">
        <ele>704.3032227</ele>
        <time>2012-04-15T07:21:35Z</time>
      </trkpt>
      <trkpt lat="47.35774" lon="6.68124">
        <ele>704.7836914</ele>
        <time>2012-04-15T07:21:49Z</time>
      </trkpt>
      <trkpt lat="47.35756" lon="6.6814">
        <ele>705.7451172</ele>
        <time>2012-04-15T07:22:05Z</time>
      </trkpt>
      <trkpt lat="47.35575" lon="6.68131">
        <ele>745.1589355</ele>
        <time>2012-04-15T07:26:07Z</time>
      </trkpt>
      <trkpt lat="47.3557" lon="6.68185">
        <ele>741.3137207</ele>
        <time>2012-04-15T07:26:37Z</time>
      </trkpt>
      <trkpt lat="47.35491" lon="6.68264">
        <ele>730.2585449</ele>
        <time>2012-04-15T07:27:12Z</time>
      </trkpt>
      <trkpt lat="47.3547" lon="6.68202">
        <ele>724.0100098</ele>
        <time>2012-04-15T07:27:32Z</time>
      </trkpt>
      <trkpt lat="47.35445" lon="6.68179">
        <ele>720.1647949</ele>
        <time>2012-04-15T07:27:45Z</time>
      </trkpt>
      <trkpt lat="47.35438" lon="6.68169">
        <ele>717.7614746</ele>
        <time>2012-04-15T07:27:51Z</time>
      </trkpt>
      <trkpt lat="47.35416" lon="6.68036">
        <ele>706.7062988</ele>
        <time>2012-04-15T07:28:25Z</time>
      </trkpt>
      <trkpt lat="47.35429" lon="6.67946">
        <ele>701.8999023</ele>
        <time>2012-04-15T07:28:47Z</time>
      </trkpt>
      <trkpt lat="47.35438" lon="6.67917">
        <ele>698.0544434</ele>
        <time>2012-04-15T07:29:02Z</time>
      </trkpt>
      <trkpt lat="47.35462" lon="6.67899">
        <ele>693.2478027</ele>
        <time>2012-04-15T07:29:53Z</time>
      </trkpt>
      <trkpt lat="47.35448" lon="6.67885">
        <ele>693.7285156</ele>
        <time>2012-04-15T07:31:07Z</time>
      </trkpt>
      <trkpt lat="47.35497" lon="6.67854">
        <ele>691.8059082</ele>
        <time>2012-04-15T07:31:28Z</time>
      </trkpt>
      <trkpt lat="47.3553" lon="6.67805">
        <ele>685.0769043</ele>
        <time>2012-04-15T07:31:45Z</time>
      </trkpt>
      <trkpt lat="47.35603" lon="6.67612">
        <ele>668.2536621</ele>
        <time>2012-04-15T07:32:26Z</time>
      </trkpt>
      <trkpt lat="47.35637" lon="6.67538">
        <ele>659.1210938</ele>
        <time>2012-04-15T07:32:48Z</time>
      </trkpt>
      <trkpt lat="47.35619" lon="6.67514">
        <ele>663.9274902</ele>
        <time>2012-04-15T07:33:18Z</time>
      </trkpt>
      <trkpt lat="47.35602" lon="6.67429">
        <ele>669.2150879</ele>
        <time>2012-04-15T07:33:56Z</time>
      </trkpt>
      <trkpt lat="47.35582" lon="6.67421">
        <ele>672.098877</ele>
        <time>2012-04-15T07:34:08Z</time>
      </trkpt>
      <trkpt lat="47.35545" lon="6.67457">
        <ele>677.8666992</ele>
        <time>2012-04-15T07:34:56Z</time>
      </trkpt>
      <trkpt lat="47.35466" lon="6.67656">
        <ele>698.5349121</ele>
        <time>2012-04-15T07:37:31Z</time>
      </trkpt>
      <trkpt lat="47.35404" lon="6.67726">
        <ele>718.2421875</ele>
        <time>2012-04-15T07:39:38Z</time>
      </trkpt>
      <trkpt lat="47.35389" lon="6.67734">
        <ele>720.6455078</ele>
        <time>2012-04-15T07:39:55Z</time>
      </trkpt>
      <trkpt lat="47.35353" lon="6.67766">
        <ele>725.4519043</ele>
        <time>2012-04-15T07:40:48Z</time>
      </trkpt>
      <trkpt lat="47.3529" lon="6.67891">
        <ele>734.1040039</ele>
        <time>2012-04-15T07:42:00Z</time>
      </trkpt>
      <trkpt lat="47.35273" lon="6.6776">
        <ele>746.1203613</ele>
        <time>2012-04-15T07:43:07Z</time>
      </trkpt>
      <trkpt lat="47.35268" lon="6.67593">
        <ele>760.0593262</ele>
        <time>2012-04-15T07:44:32Z</time>
      </trkpt>
      <trkpt lat="47.35245" lon="6.67421">
        <ele>766.7888184</ele>
        <time>2012-04-15T07:45:38Z</time>
      </trkpt>
      <trkpt lat="47.35226" lon="6.67282">
        <ele>766.3081055</ele>
        <time>2012-04-15T07:46:10Z</time>
      </trkpt>
      <trkpt lat="47.35172" lon="6.67094">
        <ele>762.9433594</ele>
        <time>2012-04-15T07:46:40Z</time>
      </trkpt>
      <trkpt lat="47.35163" lon="6.669">
        <ele>767.75</ele>
        <time>2012-04-15T07:47:26Z</time>
      </trkpt>
      <trkpt lat="47.3515" lon="6.66786">
        <ele>762.9433594</ele>
        <time>2012-04-15T07:47:47Z</time>
      </trkpt>
      <trkpt lat="47.35197" lon="6.66672">
        <ele>762.4626465</ele>
        <time>2012-04-15T07:48:08Z</time>
      </trkpt>
      <trkpt lat="47.35225" lon="6.66487">
        <ele>773.5180664</ele>
        <time>2012-04-15T07:49:01Z</time>
      </trkpt>
      <trkpt lat="47.35237" lon="6.66411">
        <ele>775.4404297</ele>
        <time>2012-04-15T07:49:24Z</time>
      </trkpt>
      <trkpt lat="47.35313" lon="6.66079">
        <ele>774.9599609</ele>
        <time>2012-04-15T07:50:39Z</time>
      </trkpt>
      <trkpt lat="47.35388" lon="6.65896">
        <ele>773.5180664</ele>
        <time>2012-04-15T07:51:14Z</time>
      </trkpt>
      <trkpt lat="47.35351" lon="6.65567">
        <ele>793.7055664</ele>
        <time>2012-04-15T07:53:15Z</time>
      </trkpt>
      <trkpt lat="47.35378" lon="6.65429">
        <ele>801.3962402</ele>
        <time>2012-04-15T07:54:10Z</time>
      </trkpt>
      <trkpt lat="47.35343" lon="6.65311">
        <ele>809.5673828</ele>
        <time>2012-04-15T07:55:00Z</time>
      </trkpt>
      <trkpt lat="47.35337" lon="6.65246">
        <ele>810.0478516</ele>
        <time>2012-04-15T07:55:20Z</time>
      </trkpt>
      <trkpt lat="47.35357" lon="6.65018">
        <ele>820.6225586</ele>
        <time>2012-04-15T07:56:33Z</time>
      </trkpt>
      <trkpt lat="47.35375" lon="6.6477">
        <ele>821.1032715</ele>
        <time>2012-04-15T08:00:59Z</time>
      </trkpt>
      <trkpt lat="47.35355" lon="6.64781">
        <ele>819.661377</ele>
        <time>2012-04-15T08:04:02Z</time>
      </trkpt>
      <trkpt lat="47.3537" lon="6.64778">
        <ele>819.661377</ele>
        <time>2012-04-15T08:04:55Z</time>
      </trkpt>
      <trkpt lat="47.35395" lon="6.64661">
        <ele>824.4677734</ele>
        <time>2012-04-15T08:06:20Z</time>
      </trkpt>
      <trkpt lat="47.354" lon="6.64602">
        <ele>825.4289551</ele>
        <time>2012-04-15T08:06:36Z</time>
      </trkpt>
      <trkpt lat="47.35405" lon="6.64556">
        <ele>825.4289551</ele>
        <time>2012-04-15T08:06:48Z</time>
      </trkpt>
      <trkpt lat="47.35429" lon="6.64413">
        <ele>823.0258789</ele>
        <time>2012-04-15T08:07:10Z</time>
      </trkpt>
      <trkpt lat="47.35441" lon="6.64264">
        <ele>816.7773438</ele>
        <time>2012-04-15T08:07:29Z</time>
      </trkpt>
      <trkpt lat="47.35603" lon="6.63922">
        <ele>820.6225586</ele>
        <time>2012-04-15T08:08:35Z</time>
      </trkpt>
      <trkpt lat="47.35703" lon="6.63387">
        <ele>827.8322754</ele>
        <time>2012-04-15T08:10:13Z</time>
      </trkpt>
      <trkpt lat="47.35714" lon="6.6325">
        <ele>833.1196289</ele>
        <time>2012-04-15T08:10:53Z</time>
      </trkpt>
      <trkpt lat="47.3574" lon="6.63109">
        <ele>830.2358398</ele>
        <time>2012-04-15T08:11:21Z</time>
      </trkpt>
      <trkpt lat="47.35778" lon="6.63027">
        <ele>826.3903809</ele>
        <time>2012-04-15T08:11:33Z</time>
      </trkpt>
      <trkpt lat="47.35804" lon="6.62855">
        <ele>830.2358398</ele>
        <time>2012-04-15T08:12:00Z</time>
      </trkpt>
      <trkpt lat="47.35763" lon="6.62697">
        <ele>832.6391602</ele>
        <time>2012-04-15T08:12:31Z</time>
      </trkpt>
      <trkpt lat="47.35745" lon="6.62584">
        <ele>831.1972656</ele>
        <time>2012-04-15T08:12:49Z</time>
      </trkpt>
      <trkpt lat="47.3572" lon="6.62434">
        <ele>823.5065918</ele>
        <time>2012-04-15T08:13:14Z</time>
      </trkpt>
      <trkpt lat="47.35692" lon="6.62286">
        <ele>809.0866699</ele>
        <time>2012-04-15T08:13:28Z</time>
      </trkpt>
      <trkpt lat="47.35681" lon="6.62159">
        <ele>800.4350586</ele>
        <time>2012-04-15T08:13:38Z</time>
      </trkpt>
      <trkpt lat="47.35657" lon="6.62143">
        <ele>796.1091309</ele>
        <time>2012-04-15T08:13:43Z</time>
      </trkpt>
      <trkpt lat="47.35641" lon="6.6216">
        <ele>792.2636719</ele>
        <time>2012-04-15T08:13:47Z</time>
      </trkpt>
      <trkpt lat="47.35632" lon="6.62151">
        <ele>788.8991699</ele>
        <time>2012-04-15T08:13:49Z</time>
      </trkpt>
      <trkpt lat="47.35592" lon="6.61958">
        <ele>767.75</ele>
        <time>2012-04-15T08:14:04Z</time>
      </trkpt>
      <trkpt lat="47.35571" lon="6.61949">
        <ele>762.4626465</ele>
        <time>2012-04-15T08:14:08Z</time>
      </trkpt>
      <trkpt lat="47.35437" lon="6.62364">
        <ele>733.1425781</ele>
        <time>2012-04-15T08:14:43Z</time>
      </trkpt>
      <trkpt lat="47.35446" lon="6.62484">
        <ele>733.1425781</ele>
        <time>2012-04-15T08:15:06Z</time>
      </trkpt>
      <trkpt lat="47.35539" lon="6.62864">
        <ele>711.5129395</ele>
        <time>2012-04-15T08:15:59Z</time>
      </trkpt>
      <trkpt lat="47.35473" lon="6.63105">
        <ele>708.1484375</ele>
        <time>2012-04-15T08:16:31Z</time>
      </trkpt>
      <trkpt lat="47.3547" lon="6.63175">
        <ele>713.9160156</ele>
        <time>2012-04-15T08:16:50Z</time>
      </trkpt>
      <trkpt lat="47.3546" lon="6.63256">
        <ele>712.4741211</ele>
        <time>2012-04-15T08:17:11Z</time>
      </trkpt>
      <trkpt lat="47.35368" lon="6.63664">
        <ele>730.7392578</ele>
        <time>2012-04-15T08:19:13Z</time>
      </trkpt>
      <trkpt lat="47.35366" lon="6.63714">
        <ele>731.7004395</ele>
        <time>2012-04-15T08:19:29Z</time>
      </trkpt>
      <trkpt lat="47.3528" lon="6.64067">
        <ele>725.4519043</ele>
        <time>2012-04-15T08:20:25Z</time>
      </trkpt>
      <trkpt lat="47.35263" lon="6.64203">
        <ele>730.2585449</ele>
        <time>2012-04-15T08:21:00Z</time>
      </trkpt>
      <trkpt lat="47.35231" lon="6.64369">
        <ele>731.2199707</ele>
        <time>2012-04-15T08:21:39Z</time>
      </trkpt>
      <trkpt lat="47.35198" lon="6.64529">
        <ele>727.3747559</ele>
        <time>2012-04-15T08:22:07Z</time>
      </trkpt>
      <trkpt lat="47.35175" lon="6.6467">
        <ele>713.9160156</ele>
        <time>2012-04-15T08:22:25Z</time>
      </trkpt>
      <trkpt lat="47.35205" lon="6.64805">
        <ele>716.3195801</ele>
        <time>2012-04-15T08:22:53Z</time>
      </trkpt>
      <trkpt lat="47.35215" lon="6.64956">
        <ele>719.2036133</ele>
        <time>2012-04-15T08:23:22Z</time>
      </trkpt>
      <trkpt lat="47.35159" lon="6.65314">
        <ele>710.5515137</ele>
        <time>2012-04-15T08:24:20Z</time>
      </trkpt>
      <trkpt lat="47.3512" lon="6.65455">
        <ele>699.015625</ele>
        <time>2012-04-15T08:24:38Z</time>
      </trkpt>
      <trkpt lat="47.35152" lon="6.65871">
        <ele>698.0544434</ele>
        <time>2012-04-15T08:25:37Z</time>
      </trkpt>
      <trkpt lat="47.35126" lon="6.66044">
        <ele>700.4580078</ele>
        <time>2012-04-15T08:26:16Z</time>
      </trkpt>
      <trkpt lat="47.35084" lon="6.66257">
        <ele>699.9770508</ele>
        <time>2012-04-15T08:27:07Z</time>
      </trkpt>
      <trkpt lat="47.35033" lon="6.66597">
        <ele>698.5349121</ele>
        <time>2012-04-15T08:28:15Z</time>
      </trkpt>
      <trkpt lat="47.35015" lon="6.66877">
        <ele>700.4580078</ele>
        <time>2012-04-15T08:29:18Z</time>
      </trkpt>
      <trkpt lat="47.35041" lon="6.67074">
        <ele>699.4963379</ele>
        <time>2012-04-15T08:29:58Z</time>
      </trkpt>
      <trkpt lat="47.35046" lon="6.67115">
        <ele>696.1318359</ele>
        <time>2012-04-15T08:30:05Z</time>
      </trkpt>
      <trkpt lat="47.35073" lon="6.67194">
        <ele>689.8833008</ele>
        <time>2012-04-15T08:30:16Z</time>
      </trkpt>
      <trkpt lat="47.35088" lon="6.67402">
        <ele>681.7119141</ele>
        <time>2012-04-15T08:30:41Z</time>
      </trkpt>
      <trkpt lat="47.35149" lon="6.67568">
        <ele>683.1538086</ele>
        <time>2012-04-15T08:31:17Z</time>
      </trkpt>
      <trkpt lat="47.35202" lon="6.678">
        <ele>702.3803711</ele>
        <time>2012-04-15T08:32:58Z</time>
      </trkpt>
      <trkpt lat="47.35205" lon="6.67811">
        <ele>702.861084</ele>
        <time>2012-04-15T08:33:03Z</time>
      </trkpt>
      <trkpt lat="47.35226" lon="6.67904">
        <ele>701.8999023</ele>
        <time>2012-04-15T08:33:31Z</time>
      </trkpt>
      <trkpt lat="47.35343" lon="6.68141">
        <ele>719.2036133</ele>
        <time>2012-04-15T08:35:00Z</time>
      </trkpt>
      <trkpt lat="47.35353" lon="6.68154">
        <ele>719.6843262</ele>
        <time>2012-04-15T08:35:06Z</time>
      </trkpt>
      <trkpt lat="47.35384" lon="6.68277">
        <ele>717.7614746</ele>
        <time>2012-04-15T08:35:26Z</time>
      </trkpt>
      <trkpt lat="47.3539" lon="6.68333">
        <ele>718.7229004</ele>
        <time>2012-04-15T08:35:33Z</time>
      </trkpt>
      <trkpt lat="47.35324" lon="6.68588">
        <ele>714.8774414</ele>
        <time>2012-04-15T08:36:04Z</time>
      </trkpt>
      <trkpt lat="47.35324" lon="6.68652">
        <ele>719.2036133</ele>
        <time>2012-04-15T08:36:15Z</time>
      </trkpt>
      <trkpt lat="47.35367" lon="6.68763">
        <ele>729.2971191</ele>
        <time>2012-04-15T08:37:01Z</time>
      </trkpt>
      <trkpt lat="47.3543" lon="6.68858">
        <ele>743.2363281</ele>
        <time>2012-04-15T08:38:04Z</time>
      </trkpt>
      <trkpt lat="47.35465" lon="6.68866">
        <ele>746.6010742</ele>
        <time>2012-04-15T08:38:29Z</time>
      </trkpt>
      <trkpt lat="47.35563" lon="6.68892">
        <ele>748.5236816</ele>
        <time>2012-04-15T08:39:12Z</time>
      </trkpt>
      <trkpt lat="47.35611" lon="6.68931">
        <ele>750.4465332</ele>
        <time>2012-04-15T08:39:38Z</time>
      </trkpt>
      <trkpt lat="47.35625" lon="6.68955">
        <ele>753.8110352</ele>
        <time>2012-04-15T08:39:50Z</time>
      </trkpt>
      <trkpt lat="47.35639" lon="6.68982">
        <ele>755.2529297</ele>
        <time>2012-04-15T08:40:03Z</time>
      </trkpt>
      <trkpt lat="47.35734" lon="6.69045">
        <ele>749.0043945</ele>
        <time>2012-04-15T08:40:21Z</time>
      </trkpt>
      <trkpt lat="47.3575" lon="6.69085">
        <ele>747.081543</ele>
        <time>2012-04-15T08:40:25Z</time>
      </trkpt>
      <trkpt lat="47.35778" lon="6.69224">
        <ele>749.4851074</ele>
        <time>2012-04-15T08:40:40Z</time>
      </trkpt>
      <trkpt lat="47.35776" lon="6.69345">
        <ele>753.8110352</ele>
        <time>2012-04-15T08:41:02Z</time>
      </trkpt>
      <trkpt lat="47.35804" lon="6.69708">
        <ele>758.1369629</ele>
        <time>2012-04-15T08:42:02Z</time>
      </trkpt>
      <trkpt lat="47.35837" lon="6.69964">
        <ele>757.65625</ele>
        <time>2012-04-15T08:42:40Z</time>
      </trkpt>
      <trkpt lat="47.35941" lon="6.70549">
        <ele>762.9433594</ele>
        <time>2012-04-15T08:44:11Z</time>
      </trkpt>
      <trkpt lat="47.35943" lon="6.70558">
        <ele>762.9433594</ele>
        <time>2012-04-15T08:44:13Z</time>
      </trkpt>
      <trkpt lat="47.35955" lon="6.7074">
        <ele>768.7114258</ele>
        <time>2012-04-15T08:45:03Z</time>
      </trkpt>
      <trkpt lat="47.3602" lon="6.70834">
        <ele>751.8884277</ele>
        <time>2012-04-15T08:45:20Z</time>
      </trkpt>
      <trkpt lat="47.3606" lon="6.70943">
        <ele>741.7944336</ele>
        <time>2012-04-15T08:45:32Z</time>
      </trkpt>
      <trkpt lat="47.36055" lon="6.71082">
        <ele>745.1589355</ele>
        <time>2012-04-15T08:45:44Z</time>
      </trkpt>
      <trkpt lat="47.36067" lon="6.71128">
        <ele>748.5236816</ele>
        <time>2012-04-15T08:45:54Z</time>
      </trkpt>
      <trkpt lat="47.36092" lon="6.71188">
        <ele>748.5236816</ele>
        <time>2012-04-15T08:46:08Z</time>
      </trkpt>
      <trkpt lat="47.36101" lon="6.71276">
        <ele>749.0043945</ele>
        <time>2012-04-15T08:46:23Z</time>
      </trkpt>
      <trkpt lat="47.36103" lon="6.71334">
        <ele>749.4851074</ele>
        <time>2012-04-15T08:46:34Z</time>
      </trkpt>
      <trkpt lat="47.36088" lon="6.71371">
        <ele>749.0043945</ele>
        <time>2012-04-15T08:46:44Z</time>
      </trkpt>
      <trkpt lat="47.36086" lon="6.71416">
        <ele>745.1589355</ele>
        <time>2012-04-15T08:46:54Z</time>
      </trkpt>
      <trkpt lat="47.36126" lon="6.71561">
        <ele>743.2363281</ele>
        <time>2012-04-15T08:47:12Z</time>
      </trkpt>
      <trkpt lat="47.36255" lon="6.7187">
        <ele>730.2585449</ele>
        <time>2012-04-15T08:48:03Z</time>
      </trkpt>
      <trkpt lat="47.3629" lon="6.71959">
        <ele>724.4907227</ele>
        <time>2012-04-15T08:48:11Z</time>
      </trkpt>
      <trkpt lat="47.36297" lon="6.72042">
        <ele>722.0874023</ele>
        <time>2012-04-15T08:48:18Z</time>
      </trkpt>
      <trkpt lat="47.36272" lon="6.72085">
        <ele>724.4907227</ele>
        <time>2012-04-15T08:48:23Z</time>
      </trkpt>
      <trkpt lat="47.3626" lon="6.72144">
        <ele>728.3359375</ele>
        <time>2012-04-15T08:48:36Z</time>
      </trkpt>
      <trkpt lat="47.36243" lon="6.72211">
        <ele>731.7004395</ele>
        <time>2012-04-15T08:48:50Z</time>
      </trkpt>
      <trkpt lat="47.3625" lon="6.72272">
        <ele>734.1040039</ele>
        <time>2012-04-15T08:49:04Z</time>
      </trkpt>
      <trkpt lat="47.36221" lon="6.72347">
        <ele>737.9492188</ele>
        <time>2012-04-15T08:49:30Z</time>
      </trkpt>
      <trkpt lat="47.36216" lon="6.724">
        <ele>739.8718262</ele>
        <time>2012-04-15T08:49:46Z</time>
      </trkpt>
      <trkpt lat="47.36223" lon="6.72445">
        <ele>740.8330078</ele>
        <time>2012-04-15T08:49:59Z</time>
      </trkpt>
      <trkpt lat="47.36203" lon="6.72572">
        <ele>744.1977539</ele>
        <time>2012-04-15T08:50:41Z</time>
      </trkpt>
      <trkpt lat="47.36215" lon="6.72606">
        <ele>744.6782227</ele>
        <time>2012-04-15T08:50:49Z</time>
      </trkpt>
      <trkpt lat="47.36196" lon="6.7275">
        <ele>748.0432129</ele>
        <time>2012-04-15T08:51:28Z</time>
      </trkpt>
      <trkpt lat="47.36184" lon="6.72802">
        <ele>750.4465332</ele>
        <time>2012-04-15T08:51:52Z</time>
      </trkpt>
      <trkpt lat="47.36139" lon="6.7282">
        <ele>751.4077148</ele>
        <time>2012-04-15T08:52:08Z</time>
      </trkpt>
      <trkpt lat="47.36153" lon="6.72902">
        <ele>758.6174316</ele>
        <time>2012-04-15T08:52:49Z</time>
      </trkpt>
      <trkpt lat="47.36127" lon="6.72962">
        <ele>760.5400391</ele>
        <time>2012-04-15T08:53:00Z</time>
      </trkpt>
      <trkpt lat="47.36112" lon="6.72961">
        <ele>762.4626465</ele>
        <time>2012-04-15T08:53:13Z</time>
      </trkpt>
      <trkpt lat="47.36116" lon="6.73001">
        <ele>770.1533203</ele>
        <time>2012-04-15T08:54:03Z</time>
      </trkpt>
      <trkpt lat="47.36083" lon="6.73027">
        <ele>771.5952148</ele>
        <time>2012-04-15T08:54:30Z</time>
      </trkpt>
      <trkpt lat="47.36089" lon="6.73083">
        <ele>763.904541</ele>
        <time>2012-04-15T08:54:55Z</time>
      </trkpt>
      <trkpt lat="47.36118" lon="6.7313">
        <ele>759.5788574</ele>
        <time>2012-04-15T08:55:05Z</time>
      </trkpt>
      <trkpt lat="47.36133" lon="6.73195">
        <ele>759.0981445</ele>
        <time>2012-04-15T08:55:16Z</time>
      </trkpt>
      <trkpt lat="47.36184" lon="6.73345">
        <ele>749.0043945</ele>
        <time>2012-04-15T08:55:40Z</time>
      </trkpt>
      <trkpt lat="47.36197" lon="6.73436">
        <ele>738.9106445</ele>
        <time>2012-04-15T08:55:51Z</time>
      </trkpt>
      <trkpt lat="47.36324" lon="6.73664">
        <ele>726.4133301</ele>
        <time>2012-04-15T08:56:28Z</time>
      </trkpt>
      <trkpt lat="47.3635" lon="6.73699">
        <ele>723.0488281</ele>
        <time>2012-04-15T08:56:35Z</time>
      </trkpt>
      <trkpt lat="47.36401" lon="6.73913">
        <ele>710.0708008</ele>
        <time>2012-04-15T08:57:08Z</time>
      </trkpt>
      <trkpt lat="47.3645" lon="6.74075">
        <ele>699.4963379</ele>
        <time>2012-04-15T08:57:28Z</time>
      </trkpt>
      <trkpt lat="47.36516" lon="6.74156">
        <ele>688.9221191</ele>
        <time>2012-04-15T08:57:44Z</time>
      </trkpt>
      <trkpt lat="47.3653" lon="6.74173">
        <ele>684.5961914</ele>
        <time>2012-04-15T08:57:47Z</time>
      </trkpt>
      <trkpt lat="47.3653" lon="6.74211">
        <ele>682.6733398</ele>
        <time>2012-04-15T08:57:52Z</time>
      </trkpt>
      <trkpt lat="47.36534" lon="6.74236">
        <ele>677.8666992</ele>
        <time>2012-04-15T08:57:58Z</time>
      </trkpt>
      <trkpt lat="47.36587" lon="6.74292">
        <ele>661.0437012</ele>
        <time>2012-04-15T08:58:14Z</time>
      </trkpt>
      <trkpt lat="47.36604" lon="6.74339">
        <ele>652.8725586</ele>
        <time>2012-04-15T08:58:24Z</time>
      </trkpt>
      <trkpt lat="47.36704" lon="6.74434">
        <ele>635.0881348</ele>
        <time>2012-04-15T08:58:42Z</time>
      </trkpt>
      <trkpt lat="47.3684" lon="6.74593">
        <ele>617.3037109</ele>
        <time>2012-04-15T08:58:59Z</time>
      </trkpt>
      <trkpt lat="47.36959" lon="6.74807">
        <ele>614.4196777</ele>
        <time>2012-04-15T08:59:02Z</time>
      </trkpt>
      <trkpt lat="47.37127" lon="6.74905">
        <ele>586.5415039</ele>
        <time>2012-04-15T08:59:45Z</time>
      </trkpt>
      <trkpt lat="47.37122" lon="6.74857">
        <ele>591.3481445</ele>
        <time>2012-04-15T09:00:25Z</time>
      </trkpt>
      <trkpt lat="47.3714" lon="6.74817">
        <ele>592.7902832</ele>
        <time>2012-04-15T09:00:41Z</time>
      </trkpt>
      <trkpt lat="47.37076" lon="6.74709">
        <ele>598.0773926</ele>
        <time>2012-04-15T09:01:15Z</time>
      </trkpt>
      <trkpt lat="47.37055" lon="6.74597">
        <ele>604.8066406</ele>
        <time>2012-04-15T09:02:12Z</time>
      </trkpt>
      <trkpt lat="47.37011" lon="6.74532">
        <ele>609.6132813</ele>
        <time>2012-04-15T09:02:47Z</time>
      </trkpt>
      <trkpt lat="47.36967" lon="6.74431">
        <ele>615.8618164</ele>
        <time>2012-04-15T09:03:57Z</time>
      </trkpt>
      <trkpt lat="47.36869" lon="6.74288">
        <ele>616.3422852</ele>
        <time>2012-04-15T09:04:11Z</time>
      </trkpt>
      <trkpt lat="47.3689" lon="6.74256">
        <ele>617.7841797</ele>
        <time>2012-04-15T09:04:22Z</time>
      </trkpt>
      <trkpt lat="47.36884" lon="6.74232">
        <ele>618.2648926</ele>
        <time>2012-04-15T09:04:30Z</time>
      </trkpt>
      <trkpt lat="47.36887" lon="6.74143">
        <ele>616.822998</ele>
        <time>2012-04-15T09:04:55Z</time>
      </trkpt>
      <trkpt lat="47.36916" lon="6.74083">
        <ele>615.8618164</ele>
        <time>2012-04-15T09:05:19Z</time>
      </trkpt>
      <trkpt lat="47.36934" lon="6.74101">
        <ele>608.1713867</ele>
        <time>2012-04-15T09:05:29Z</time>
      </trkpt>
      <trkpt lat="47.36934" lon="6.74083">
        <ele>604.8066406</ele>
        <time>2012-04-15T09:05:33Z</time>
      </trkpt>
      <trkpt lat="47.37021" lon="6.73982">
        <ele>601.4418945</ele>
        <time>2012-04-15T09:05:37Z</time>
      </trkpt>
      <trkpt lat="47.3706" lon="6.7398">
        <ele>598.0773926</ele>
        <time>2012-04-15T09:05:41Z</time>
      </trkpt>
      <trkpt lat="47.37049" lon="6.74017">
        <ele>592.7902832</ele>
        <time>2012-04-15T09:05:49Z</time>
      </trkpt>
      <trkpt lat="47.37103" lon="6.74028">
        <ele>582.6962891</ele>
        <time>2012-04-15T09:06:08Z</time>
      </trkpt>
      <trkpt lat="47.37118" lon="6.73967">
        <ele>577.8896484</ele>
        <time>2012-04-15T09:06:21Z</time>
      </trkpt>
      <trkpt lat="47.37115" lon="6.73861">
        <ele>572.1218262</ele>
        <time>2012-04-15T09:06:35Z</time>
      </trkpt>
      <trkpt lat="47.37117" lon="6.73763">
        <ele>565.873291</ele>
        <time>2012-04-15T09:06:47Z</time>
      </trkpt>
      <trkpt lat="47.37092" lon="6.73689">
        <ele>566.8344727</ele>
        <time>2012-04-15T09:06:53Z</time>
      </trkpt>
      <trkpt lat="47.37061" lon="6.73661">
        <ele>568.7570801</ele>
        <time>2012-04-15T09:07:04Z</time>
      </trkpt>
      <trkpt lat="47.36965" lon="6.73653">
        <ele>561.0666504</ele>
        <time>2012-04-15T09:07:26Z</time>
      </trkpt>
      <trkpt lat="47.36835" lon="6.73534">
        <ele>550.9726563</ele>
        <time>2012-04-15T09:07:50Z</time>
      </trkpt>
      <trkpt lat="47.36748" lon="6.7327">
        <ele>537.5142822</ele>
        <time>2012-04-15T09:08:22Z</time>
      </trkpt>
      <trkpt lat="47.36733" lon="6.73239">
        <ele>534.6303711</ele>
        <time>2012-04-15T09:08:27Z</time>
      </trkpt>
      <trkpt lat="47.36747" lon="6.73213">
        <ele>527.4204102</ele>
        <time>2012-04-15T09:08:40Z</time>
      </trkpt>
      <trkpt lat="47.36739" lon="6.73183">
        <ele>523.0946045</ele>
        <time>2012-04-15T09:08:46Z</time>
      </trkpt>
      <trkpt lat="47.36782" lon="6.73155">
        <ele>514.442627</ele>
        <time>2012-04-15T09:08:57Z</time>
      </trkpt>
      <trkpt lat="47.36709" lon="6.73001">
        <ele>511.0780029</ele>
        <time>2012-04-15T09:09:02Z</time>
      </trkpt>
      <trkpt lat="47.36736" lon="6.72945">
        <ele>507.2327881</ele>
        <time>2012-04-15T09:09:11Z</time>
      </trkpt>
      <trkpt lat="47.36752" lon="6.72945">
        <ele>505.7908936</ele>
        <time>2012-04-15T09:09:17Z</time>
      </trkpt>
      <trkpt lat="47.36763" lon="6.72928">
        <ele>498.5809326</ele>
        <time>2012-04-15T09:09:38Z</time>
      </trkpt>
      <trkpt lat="47.3678" lon="6.7286">
        <ele>501.4648438</ele>
        <time>2012-04-15T09:10:13Z</time>
      </trkpt>
      <trkpt lat="47.3684" lon="6.72784">
        <ele>504.348877</ele>
        <time>2012-04-15T09:11:10Z</time>
      </trkpt>
      <trkpt lat="47.36884" lon="6.72742">
        <ele>492.3323975</ele>
        <time>2012-04-15T09:11:33Z</time>
      </trkpt>
      <trkpt lat="47.36895" lon="6.72714">
        <ele>489.4483643</ele>
        <time>2012-04-15T09:11:37Z</time>
      </trkpt>
      <trkpt lat="47.36878" lon="6.72662">
        <ele>486.0837402</ele>
        <time>2012-04-15T09:11:45Z</time>
      </trkpt>
      <trkpt lat="47.36926" lon="6.72657">
        <ele>479.835083</ele>
        <time>2012-04-15T09:12:02Z</time>
      </trkpt>
      <trkpt lat="47.36898" lon="6.72611">
        <ele>476.4705811</ele>
        <time>2012-04-15T09:12:14Z</time>
      </trkpt>
      <trkpt lat="47.36916" lon="6.72577">
        <ele>476.9512939</ele>
        <time>2012-04-15T09:12:24Z</time>
      </trkpt>
      <trkpt lat="47.37025" lon="6.72572">
        <ele>475.9898682</ele>
        <time>2012-04-15T09:12:56Z</time>
      </trkpt>
      <trkpt lat="47.37181" lon="6.72643">
        <ele>484.1611328</ele>
        <time>2012-04-15T09:14:21Z</time>
      </trkpt>
      <trkpt lat="47.37493" lon="6.72658">
        <ele>476.9512939</ele>
        <time>2012-04-15T09:15:07Z</time>
      </trkpt>
      <trkpt lat="47.37576" lon="6.72687">
        <ele>470.2219238</ele>
        <time>2012-04-15T09:15:25Z</time>
      </trkpt>
      <trkpt lat="47.37602" lon="6.72714">
        <ele>469.2607422</ele>
        <time>2012-04-15T09:15:36Z</time>
      </trkpt>
      <trkpt lat="47.37627" lon="6.72798">
        <ele>468.7800293</ele>
        <time>2012-04-15T09:19:24Z</time>
      </trkpt>
      <trkpt lat="47.37614" lon="6.7281">
        <ele>469.2607422</ele>
        <time>2012-04-15T09:19:48Z</time>
      </trkpt>
      <trkpt lat="47.37626" lon="6.72807">
        <ele>468.2993164</ele>
        <time>2012-04-15T09:20:27Z</time>
      </trkpt>
      <trkpt lat="47.37602" lon="6.72786">
        <ele>471.1833496</ele>
        <time>2012-04-15T09:21:05Z</time>
      </trkpt>
      <trkpt lat="47.37584" lon="6.72796">
        <ele>477.4318848</ele>
        <time>2012-04-15T09:21:36Z</time>
      </trkpt>
      <trkpt lat="47.37535" lon="6.72801">
        <ele>481.2772217</ele>
        <time>2012-04-15T09:22:01Z</time>
      </trkpt>
      <trkpt lat="47.37462" lon="6.72792">
        <ele>466.8574219</ele>
        <time>2012-04-15T09:22:33Z</time>
      </trkpt>
      <trkpt lat="47.37424" lon="6.72771">
        <ele>465.8961182</ele>
        <time>2012-04-15T09:22:46Z</time>
      </trkpt>
      <trkpt lat="47.37402" lon="6.72735">
        <ele>464.4541016</ele>
        <time>2012-04-15T09:22:55Z</time>
      </trkpt>
      <trkpt lat="47.37404" lon="6.72708">
        <ele>463.4927979</ele>
        <time>2012-04-15T09:23:03Z</time>
      </trkpt>
      <trkpt lat="47.37414" lon="6.72718">
        <ele>463.012085</ele>
        <time>2012-04-15T09:23:07Z</time>
      </trkpt>
      <trkpt lat="47.37559" lon="6.72344">
        <ele>459.647583</ele>
        <time>2012-04-15T09:23:19Z</time>
      </trkpt>
      <trkpt lat="47.3758" lon="6.72331">
        <ele>457.2442627</ele>
        <time>2012-04-15T09:23:23Z</time>
      </trkpt>
      <trkpt lat="47.37685" lon="6.72354">
        <ele>458.6861572</ele>
        <time>2012-04-15T09:24:05Z</time>
      </trkpt>
      <trkpt lat="47.3773" lon="6.72311">
        <ele>463.4927979</ele>
        <time>2012-04-15T09:24:46Z</time>
      </trkpt>
      <trkpt lat="47.37753" lon="6.72274">
        <ele>470.2219238</ele>
        <time>2012-04-15T09:25:17Z</time>
      </trkpt>
      <trkpt lat="47.37756" lon="6.72255">
        <ele>466.376709</ele>
        <time>2012-04-15T09:25:33Z</time>
      </trkpt>
      <trkpt lat="47.37719" lon="6.72185">
        <ele>451.9570313</ele>
        <time>2012-04-15T09:25:55Z</time>
      </trkpt>
      <trkpt lat="47.37702" lon="6.71963">
        <ele>448.1118164</ele>
        <time>2012-04-15T09:26:20Z</time>
      </trkpt>
      <trkpt lat="47.37704" lon="6.7191">
        <ele>444.7470703</ele>
        <time>2012-04-15T09:26:30Z</time>
      </trkpt>
      <trkpt lat="47.37705" lon="6.71783">
        <ele>433.2113037</ele>
        <time>2012-04-15T09:26:52Z</time>
      </trkpt>
      <trkpt lat="47.37708" lon="6.7174">
        <ele>424.0787354</ele>
        <time>2012-04-15T09:27:02Z</time>
      </trkpt>
      <trkpt lat="47.37681" lon="6.71571">
        <ele>406.2943115</ele>
        <time>2012-04-15T09:27:32Z</time>
      </trkpt>
      <trkpt lat="47.3765" lon="6.71486">
        <ele>402.4490967</ele>
        <time>2012-04-15T09:27:40Z</time>
      </trkpt>
      <trkpt lat="47.37593" lon="6.71401">
        <ele>400.0458984</ele>
        <time>2012-04-15T09:27:48Z</time>
      </trkpt>
      <trkpt lat="47.37494" lon="6.71354">
        <ele>395.2391357</ele>
        <time>2012-04-15T09:28:03Z</time>
      </trkpt>
      <trkpt lat="47.3749" lon="6.71312">
        <ele>394.7585449</ele>
        <time>2012-04-15T09:28:09Z</time>
      </trkpt>
      <trkpt lat="47.37537" lon="6.71299">
        <ele>391.8745117</ele>
        <time>2012-04-15T09:28:16Z</time>
      </trkpt>
      <trkpt lat="47.37562" lon="6.71258">
        <ele>390.4326172</ele>
        <time>2012-04-15T09:28:22Z</time>
      </trkpt>
      <trkpt lat="47.37543" lon="6.70915">
        <ele>392.3553467</ele>
        <time>2012-04-15T09:29:01Z</time>
      </trkpt>
      <trkpt lat="47.37505" lon="6.70759">
        <ele>393.3165283</ele>
        <time>2012-04-15T09:29:21Z</time>
      </trkpt>
      <trkpt lat="47.37501" lon="6.70494">
        <ele>399.0843506</ele>
        <time>2012-04-15T09:29:55Z</time>
      </trkpt>
      <trkpt lat="47.3747" lon="6.70301">
        <ele>399.0843506</ele>
        <time>2012-04-15T09:30:22Z</time>
      </trkpt>
      <trkpt lat="47.37467" lon="6.70149">
        <ele>399.0843506</ele>
        <time>2012-04-15T09:30:40Z</time>
      </trkpt>
      <trkpt lat="47.37425" lon="6.70048">
        <ele>399.5650635</ele>
        <time>2012-04-15T09:30:54Z</time>
      </trkpt>
      <trkpt lat="47.37373" lon="6.69888">
        <ele>399.0843506</ele>
        <time>2012-04-15T09:31:15Z</time>
      </trkpt>
      <trkpt lat="47.37373" lon="6.69808">
        <ele>400.5264893</ele>
        <time>2012-04-15T09:31:25Z</time>
      </trkpt>
      <trkpt lat="47.37424" lon="6.69457">
        <ele>401.0070801</ele>
        <time>2012-04-15T09:32:12Z</time>
      </trkpt>
      <trkpt lat="47.3751" lon="6.69104">
        <ele>400.0458984</ele>
        <time>2012-04-15T09:32:53Z</time>
      </trkpt>
      <trkpt lat="47.37471" lon="6.68909">
        <ele>406.2943115</ele>
        <time>2012-04-15T09:33:28Z</time>
      </trkpt>
      <trkpt lat="47.37453" lon="6.68703">
        <ele>406.2943115</ele>
        <time>2012-04-15T09:34:00Z</time>
      </trkpt>
      <trkpt lat="47.37504" lon="6.6858">
        <ele>407.2556152</ele>
        <time>2012-04-15T09:34:20Z</time>
      </trkpt>
      <trkpt lat="47.37516" lon="6.68458">
        <ele>405.8137207</ele>
        <time>2012-04-15T09:34:36Z</time>
      </trkpt>
      <trkpt lat="47.37501" lon="6.68368">
        <ele>404.3717041</ele>
        <time>2012-04-15T09:34:47Z</time>
      </trkpt>
      <trkpt lat="47.37492" lon="6.682">
        <ele>399.5650635</ele>
        <time>2012-04-15T09:35:04Z</time>
      </trkpt>
      <trkpt lat="47.37616" lon="6.68194">
        <ele>399.5650635</ele>
        <time>2012-04-15T09:36:01Z</time>
      </trkpt>
    </trkseg>
  </trk>
</gpx>